Time;durP1;ratioP1;P1;durP2;ratioP2;P2;SDS_P1;SDS_P2;PMS_P1;PMS_P2;Temp;Humidity;BMP_temperature;BMP_pressure;BME280_temperature;BME280_humidity;BME280_pressure;Samples;Min_cycle;Max_cycle;Signal;HPM_P1;HPM_P2
2021/01/19 00:02:24;;;;;;;16.17;13.17;;;;;;;;;;5013378;28;20484;-64
2021/01/19 00:04:51;;;;;;;14.60;13.07;;;;;;;;;;5014389;28;20445;-64
2021/01/19 00:07:17;;;;;;;13.07;11.73;;;;;;;;;;5014005;28;20636;-67
2021/01/19 00:09:44;;;;;;;15.60;11.37;;;;;;;;;;5014034;28;20490;-66
2021/01/19 00:12:12;;;;;;;14.50;13.20;;;;;;;;;;5013416;28;20481;-65
2021/01/19 00:14:38;;;;;;;13.70;12.30;;;;;;;;;;5013572;28;20543;-65
2021/01/19 00:17:05;;;;;;;16.53;13.47;;;;;;;;;;5013505;28;20454;-66
2021/01/19 00:19:31;;;;;;;14.83;12.83;;;;;;;;;;5013412;28;20450;-65
2021/01/19 00:21:58;;;;;;;16.57;12.07;;;;;;;;;;5013174;28;20561;-65
2021/01/19 00:24:25;;;;;;;16.00;14.40;;;;;;;;;;5013046;28;20965;-65
2021/01/19 00:26:51;;;;;;;19.27;15.13;;;;;;;;;;5013077;28;20553;-65
2021/01/19 00:29:19;;;;;;;17.63;14.70;;;;;;;;;;5013196;28;20449;-66
2021/01/19 00:31:46;;;;;;;17.80;15.53;;;;;;;;;;5012635;28;20464;-65
2021/01/19 00:34:12;;;;;;;18.30;16.37;;;;;;;;;;5012844;28;20489;-65
2021/01/19 00:36:39;;;;;;;21.20;15.93;;;;;;;;;;5013042;28;20461;-65
2021/01/19 00:39:06;;;;;;;19.00;16.13;;;;;;;;;;5013363;28;20461;-65
2021/01/19 00:41:32;;;;;;;21.23;16.73;;;;;;;;;;5012554;28;20454;-67
2021/01/19 00:43:59;;;;;;;19.90;17.80;;;;;;;;;;5013421;28;20445;-66
2021/01/19 00:46:26;;;;;;;23.53;19.07;;;;;;;;;;5013054;28;20462;-65
2021/01/19 00:48:53;;;;;;;20.77;17.40;;;;;;;;;;5012601;28;20450;-65
2021/01/19 00:51:20;;;;;;;21.93;19.37;;;;;;;;;;5012829;28;20454;-65
2021/01/19 00:53:46;;;;;;;19.27;17.47;;;;;;;;;;5012747;28;20486;-66
2021/01/19 00:56:13;;;;;;;22.27;19.90;;;;;;;;;;5013266;28;20445;-66
2021/01/19 00:58:39;;;;;;;22.40;19.30;;;;;;;;;;5013356;28;20449;-67
2021/01/19 01:01:06;;;;;;;21.83;19.60;;;;;;;;;;5013858;28;20460;-67
2021/01/19 01:03:34;;;;;;;23.30;19.73;;;;;;;;;;5014106;28;20855;-65
2021/01/19 01:06:01;;;;;;;23.50;19.33;;;;;;;;;;5013201;28;20461;-67
2021/01/19 01:08:28;;;;;;;22.90;20.50;;;;;;;;;;5012764;28;20446;-67
2021/01/19 01:10:54;;;;;;;22.83;20.73;;;;;;;;;;5012560;28;20449;-67
2021/01/19 01:13:21;;;;;;;21.93;19.40;;;;;;;;;;5011936;28;20532;-66
2021/01/19 01:15:48;;;;;;;23.10;20.80;;;;;;;;;;5012326;28;20933;-67
2021/01/19 01:18:15;;;;;;;22.03;19.67;;;;;;;;;;5012421;28;20446;-67
2021/01/19 01:20:42;;;;;;;21.80;19.60;;;;;;;;;;5012407;28;20462;-67
2021/01/19 01:23:13;;;;;;;24.37;20.57;;;;;;;;;;5011926;28;21023;-67
2021/01/19 01:25:40;;;;;;;22.87;20.30;;;;;;;;;;5012439;28;20890;-67
2021/01/19 01:28:06;;;;;;;22.50;20.10;;;;;;;;;;5012405;28;20796;-67
2021/01/19 01:30:33;;;;;;;25.23;21.07;;;;;;;;;;5013321;28;20450;-66
2021/01/19 01:32:59;;;;;;;22.27;20.07;;;;;;;;;;5013320;28;20465;-65
2021/01/19 01:35:26;;;;;;;23.50;20.97;;;;;;;;;;5012796;28;20484;-66
2021/01/19 01:37:54;;;;;;;15.37;13.17;;;;;;;;;;5013228;28;20455;-67
2021/01/19 01:40:22;;;;;;;24.93;22.40;;;;;;;;;;5013434;28;20461;-66
2021/01/19 01:42:48;;;;;;;25.63;23.17;;;;;;;;;;5012895;28;20470;-66
2021/01/19 01:45:18;;;;;;;23.80;21.40;;;;;;;;;;5012634;28;20450;-66
2021/01/19 01:47:45;;;;;;;27.50;20.00;;;;;;;;;;5012926;28;20806;-66
2021/01/19 01:50:12;;;;;;;24.00;21.50;;;;;;;;;;5012155;28;20449;-65
2021/01/19 01:52:39;;;;;;;25.60;21.00;;;;;;;;;;5012823;28;20469;-67
2021/01/19 01:55:09;;;;;;;23.63;21.10;;;;;;;;;;5012578;28;20489;-65
2021/01/19 01:57:37;;;;;;;22.10;19.90;;;;;;;;;;5013062;28;20452;-67
2021/01/19 02:00:05;;;;;;;24.00;21.70;;;;;;;;;;5012705;28;20454;-65
2021/01/19 02:02:32;;;;;;;22.03;19.93;;;;;;;;;;5012551;28;20469;-67
2021/01/19 02:04:58;;;;;;;23.03;20.73;;;;;;;;;;5012301;28;20454;-66
2021/01/19 02:07:28;;;;;;;23.00;18.60;;;;;;;;;;5012489;28;20450;-67
2021/01/19 02:09:58;;;;;;;24.03;19.90;;;;;;;;;;5012609;28;20458;-66
2021/01/19 02:12:29;;;;;;;25.73;21.10;;;;;;;;;;5011780;28;20486;-65
2021/01/19 02:14:58;;;;;;;26.03;21.67;;;;;;;;;;5012245;28;20972;-67
2021/01/19 02:17:27;;;;;;;22.83;20.23;;;;;;;;;;5012240;28;20453;-66
2021/01/19 02:20:11;;;;;;;27.67;22.03;;;;;;;;;;5012635;28;20449;-67
2021/01/19 02:23:02;;;;;;;24.67;21.83;;;;;;;;;;5012133;28;20515;-67
2021/01/19 02:25:34;;;;;;;23.47;20.83;;;;;;;;;;5016280;28;20433;-66
2021/01/19 02:28:20;;;;;;;29.83;23.73;;;;;;;;;;5015457;28;20815;-66
2021/01/19 02:30:50;;;;;;;25.97;21.33;;;;;;;;;;5015914;28;20445;-67
2021/01/19 02:33:22;;;;;;;29.13;24.13;;;;;;;;;;5015737;28;20465;-67
2021/01/19 02:35:50;;;;;;;29.83;22.83;;;;;;;;;;5014690;28;20769;-67
2021/01/19 02:38:20;;;;;;;26.13;22.57;;;;;;;;;;5015717;28;20457;-67
2021/01/19 02:40:48;;;;;;;30.90;24.47;;;;;;;;;;5015436;28;20452;-65
2021/01/19 02:43:19;;;;;;;30.03;24.00;;;;;;;;;;5015006;28;20823;-63
2021/01/19 02:45:46;;;;;;;24.97;22.20;;;;;;;;;;5015718;28;20453;-63
2021/01/19 02:48:13;;;;;;;25.50;22.80;;;;;;;;;;5015400;28;20491;-63
2021/01/19 02:50:40;;;;;;;29.93;23.60;;;;;;;;;;5015418;28;20437;-64
2021/01/19 02:53:07;;;;;;;32.40;23.40;;;;;;;;;;5014991;28;20532;-63
2021/01/19 02:55:34;;;;;;;28.60;24.17;;;;;;;;;;5015222;28;20481;-63
2021/01/19 02:58:07;;;;;;;29.53;23.77;;;;;;;;;;5014499;28;20969;-63
2021/01/19 03:00:51;;;;;;;29.87;26.40;;;;;;;;;;5015806;28;20450;-63
2021/01/19 03:03:18;;;;;;;28.90;25.83;;;;;;;;;;5014743;28;20472;-63
2021/01/19 03:05:46;;;;;;;29.40;25.77;;;;;;;;;;5015021;28;20441;-63
2021/01/19 03:08:14;;;;;;;29.80;26.13;;;;;;;;;;5014785;28;20452;-63
2021/01/19 03:10:41;;;;;;;28.40;25.40;;;;;;;;;;5015251;28;20449;-64
2021/01/19 03:13:12;;;;;;;30.80;27.60;;;;;;;;;;5014656;28;20500;-63
2021/01/19 03:15:38;;;;;;;30.67;27.33;;;;;;;;;;5014637;28;20535;-63
2021/01/19 03:18:05;;;;;;;34.23;27.60;;;;;;;;;;5014196;28;20522;-63
2021/01/19 03:20:32;;;;;;;29.63;26.47;;;;;;;;;;5014317;28;20941;-64
2021/01/19 03:23:00;;;;;;;31.63;28.43;;;;;;;;;;5014661;28;20477;-64
2021/01/19 03:25:26;;;;;;;29.60;26.40;;;;;;;;;;5014682;28;20959;-63
2021/01/19 03:27:53;;;;;;;31.60;28.40;;;;;;;;;;5014256;28;20456;-63
2021/01/19 03:30:20;;;;;;;31.20;27.73;;;;;;;;;;5014477;28;20458;-63
2021/01/19 03:32:46;;;;;;;30.63;27.43;;;;;;;;;;5014420;28;20515;-65
2021/01/19 03:35:13;;;;;;;34.23;27.40;;;;;;;;;;5013757;28;20492;-63
2021/01/19 03:37:40;;;;;;;32.63;27.80;;;;;;;;;;5013945;28;20457;-63
2021/01/19 03:40:08;;;;;;;30.77;26.97;;;;;;;;;;5014581;28;20449;-64
2021/01/19 03:42:35;;;;;;;30.20;26.10;;;;;;;;;;5013869;28;20481;-64
2021/01/19 03:45:01;;;;;;;32.33;28.83;;;;;;;;;;5014607;28;20442;-63
2021/01/19 03:47:28;;;;;;;33.10;29.60;;;;;;;;;;5013088;28;20493;-63
2021/01/19 03:49:54;;;;;;;34.90;26.70;;;;;;;;;;5014194;28;20441;-65
2021/01/19 03:52:21;;;;;;;31.77;28.57;;;;;;;;;;5014307;28;20480;-63
2021/01/19 03:54:48;;;;;;;32.93;29.33;;;;;;;;;;5013992;28;20492;-64
2021/01/19 03:57:15;;;;;;;30.20;26.97;;;;;;;;;;5014007;28;20454;-63
2021/01/19 03:59:42;;;;;;;32.23;28.77;;;;;;;;;;5013983;28;20463;-63
2021/01/19 04:02:08;;;;;;;30.63;27.23;;;;;;;;;;5013379;28;20970;-63
2021/01/19 04:04:35;;;;;;;35.03;31.70;;;;;;;;;;5013936;28;20457;-64
2021/01/19 04:07:02;;;;;;;33.60;30.27;;;;;;;;;;5014075;28;20453;-63
2021/01/19 04:09:28;;;;;;;33.70;30.20;;;;;;;;;;5013629;28;20523;-63
2021/01/19 04:14:32;;;;;;;35.53;31.83;;;;;;;;;;5009771;28;20489;-71
2021/01/19 04:16:59;;;;;;;35.33;31.67;;;;;;;;;;5013882;28;20473;-71
2021/01/19 04:19:25;;;;;;;37.27;33.27;;;;;;;;;;5012226;28;20449;-72
2021/01/19 04:21:52;;;;;;;37.70;33.90;;;;;;;;;;5013622;28;20461;-71
2021/01/19 04:24:18;;;;;;;36.87;33.00;;;;;;;;;;5032950;28;20915;-70
2021/01/19 04:26:45;;;;;;;37.63;33.63;;;;;;;;;;5033419;28;20448;-70
2021/01/19 04:29:12;;;;;;;37.87;33.90;;;;;;;;;;5033611;28;20452;-71
2021/01/19 04:31:39;;;;;;;38.43;34.47;;;;;;;;;;5033510;28;20452;-71
2021/01/19 04:34:06;;;;;;;39.93;34.50;;;;;;;;;;5032065;28;20487;-70
2021/01/19 04:36:32;;;;;;;38.63;34.53;;;;;;;;;;5033474;28;20452;-70
2021/01/19 04:38:59;;;;;;;37.57;33.30;;;;;;;;;;5032706;28;20460;-70
2021/01/19 04:41:27;;;;;;;39.00;34.77;;;;;;;;;;5032860;28;20864;-70
2021/01/19 04:43:54;;;;;;;41.80;36.50;;;;;;;;;;5033004;28;20465;-71
2021/01/19 04:46:21;;;;;;;40.50;36.33;;;;;;;;;;5032830;28;20449;-70
2021/01/19 04:48:48;;;;;;;40.87;36.60;;;;;;;;;;5031552;28;20501;-70
2021/01/19 04:51:17;;;;;;;38.97;34.80;;;;;;;;;;5033174;28;20453;-70
2021/01/19 04:53:46;;;;;;;42.40;37.60;;;;;;;;;;5032675;28;20477;-71
2021/01/19 04:56:18;;;;;;;41.90;36.73;;;;;;;;;;5032989;28;20999;-71
2021/01/19 04:58:49;;;;;;;39.80;35.67;;;;;;;;;;5032733;28;20436;-71
2021/01/19 05:01:21;;;;;;;38.63;34.63;;;;;;;;;;5032711;28;20440;-70
2021/01/19 05:03:57;;;;;;;42.33;37.27;;;;;;;;;;5032727;28;20476;-70
2021/01/19 05:06:38;;;;;;;43.90;38.10;;;;;;;;;;5032699;28;20432;-70
2021/01/19 05:09:08;;;;;;;41.80;35.40;;;;;;;;;;5012869;28;20458;-72
2021/01/19 05:11:44;;;;;;;42.27;37.00;;;;;;;;;;5013008;28;20449;-70
2021/01/19 05:14:17;;;;;;;40.57;36.27;;;;;;;;;;5012904;28;20496;-71
2021/01/19 05:16:44;;;;;;;40.40;36.03;;;;;;;;;;5021647;28;20459;-70
2021/01/19 05:19:11;;;;;;;44.20;34.90;;;;;;;;;;5032145;28;20999;-71
2021/01/19 05:21:38;;;;;;;41.40;32.60;;;;;;;;;;5032560;28;20441;-70
2021/01/19 05:24:05;;;;;;;37.57;33.43;;;;;;;;;;5031783;28;20559;-71
2021/01/19 05:26:33;;;;;;;38.20;33.60;;;;;;;;;;5032413;28;20824;-71
2021/01/19 05:29:03;;;;;;;33.37;29.87;;;;;;;;;;5031967;28;20833;-71
2021/01/19 05:31:30;;;;;;;34.57;30.87;;;;;;;;;;5031984;28;20460;-70
2021/01/19 05:34:00;;;;;;;35.73;31.90;;;;;;;;;;5031461;28;20495;-70
2021/01/19 05:36:34;;;;;;;33.40;28.83;;;;;;;;;;5032213;28;20449;-70
2021/01/19 05:39:01;;;;;;;28.90;25.90;;;;;;;;;;5032056;28;20482;-71
2021/01/19 05:41:30;;;;;;;30.47;26.47;;;;;;;;;;5032209;28;20457;-71
2021/01/19 05:43:57;;;;;;;29.30;26.17;;;;;;;;;;5031692;28;20502;-70
2021/01/19 05:46:28;;;;;;;30.67;27.67;;;;;;;;;;5031703;28;20502;-71
2021/01/19 05:48:59;;;;;;;30.27;27.00;;;;;;;;;;5031829;28;20867;-71
2021/01/19 05:51:28;;;;;;;29.43;26.43;;;;;;;;;;5031746;28;20971;-71
2021/01/19 05:53:54;;;;;;;28.40;25.40;;;;;;;;;;5031928;28;20472;-71
2021/01/19 05:56:22;;;;;;;29.50;26.40;;;;;;;;;;5032051;28;20498;-70
2021/01/19 05:58:49;;;;;;;26.90;24.10;;;;;;;;;;5032050;28;20449;-70
2021/01/19 06:01:24;;;;;;;31.03;27.73;;;;;;;;;;5031403;28;20448;-72
2021/01/19 06:03:56;;;;;;;29.30;26.20;;;;;;;;;;5031966;28;20472;-70
2021/01/19 06:06:24;;;;;;;27.57;24.93;;;;;;;;;;5031804;28;20499;-70
2021/01/19 06:08:57;;;;;;;28.23;25.40;;;;;;;;;;5031638;28;20459;-70
2021/01/19 06:11:23;;;;;;;28.70;25.80;;;;;;;;;;5027072;28;20452;-70
2021/01/19 06:13:51;;;;;;;28.23;25.30;;;;;;;;;;5031348;28;20480;-70
2021/01/19 06:16:21;;;;;;;28.83;25.93;;;;;;;;;;5031713;28;20457;-70
2021/01/19 06:18:47;;;;;;;30.80;27.50;;;;;;;;;;5031489;28;20453;-71
2021/01/19 06:21:25;;;;;;;26.80;24.00;;;;;;;;;;5031295;28;20468;-71
2021/01/19 06:23:53;;;;;;;31.13;28.20;;;;;;;;;;5031747;28;20979;-72
2021/01/19 06:26:19;;;;;;;31.60;28.27;;;;;;;;;;5031763;28;20803;-71
2021/01/19 06:28:46;;;;;;;31.50;28.50;;;;;;;;;;5030793;28;20476;-72
2021/01/19 06:31:13;;;;;;;29.17;26.17;;;;;;;;;;5031581;28;20514;-71
2021/01/19 06:33:41;;;;;;;31.40;28.20;;;;;;;;;;5030906;28;21049;-70
2021/01/19 06:36:08;;;;;;;30.93;27.60;;;;;;;;;;5031488;28;20449;-71
2021/01/19 06:38:35;;;;;;;32.07;28.97;;;;;;;;;;5031659;28;20444;-71
2021/01/19 06:41:03;;;;;;;28.87;25.97;;;;;;;;;;5031136;28;20498;-71
2021/01/19 06:43:35;;;;;;;27.50;24.90;;;;;;;;;;5031029;28;20987;-71
2021/01/19 06:46:07;;;;;;;28.13;25.47;;;;;;;;;;5031588;28;20948;-71
2021/01/19 06:48:34;;;;;;;28.93;26.13;;;;;;;;;;5011335;28;20453;-72
2021/01/19 06:51:02;;;;;;;31.10;27.67;;;;;;;;;;5011689;28;20453;-71
2021/01/19 06:53:34;;;;;;;29.93;26.90;;;;;;;;;;5030862;28;20830;-71
2021/01/19 06:56:11;;;;;;;26.10;23.53;;;;;;;;;;5031721;28;20674;-71
2021/01/19 06:58:48;;;;;;;25.53;22.83;;;;;;;;;;5030590;28;20448;-71
2021/01/19 07:01:15;;;;;;;25.20;22.73;;;;;;;;;;5031011;28;20530;-71
2021/01/19 07:03:42;;;;;;;27.20;24.60;;;;;;;;;;5031826;28;20503;-71
2021/01/19 07:06:10;;;;;;;26.27;23.77;;;;;;;;;;5031851;28;20449;-70
2021/01/19 07:08:57;;;;;;;25.17;22.73;;;;;;;;;;5044510;28;20471;-72
2021/01/19 07:11:38;;;;;;;26.77;23.53;;;;;;;;;;5046474;28;20954;-72
2021/01/19 07:14:10;;;;;;;8.63;7.40;;;;;;;;;;5028124;28;20502;-72
2021/01/19 07:16:42;;;;;;;9.13;6.90;;;;;;;;;;5038952;28;20510;-75
2021/01/19 07:19:18;;;;;;;8.50;7.50;;;;;;;;;;5035446;28;20448;-81
2021/01/19 07:22:03;;;;;;;10.03;6.90;;;;;;;;;;5016975;28;20463;-70
2021/01/19 07:24:34;;;;;;;7.90;7.10;;;;;;;;;;5024142;28;20862;-70
2021/01/19 07:27:02;;;;;;;5.90;5.40;;;;;;;;;;5034880;28;20448;-70
2021/01/19 07:29:29;;;;;;;5.90;4.80;;;;;;;;;;5034619;28;20456;-70
2021/01/19 07:31:56;;;;;;;4.90;4.50;;;;;;;;;;5034713;28;20456;-69
2021/01/19 07:34:23;;;;;;;5.57;5.17;;;;;;;;;;5033904;28;20488;-70
2021/01/19 07:36:53;;;;;;;5.17;4.73;;;;;;;;;;5034659;28;20452;-71
2021/01/19 07:39:20;;;;;;;4.03;3.40;;;;;;;;;;5033789;28;20453;-70
2021/01/19 07:41:47;;;;;;;3.83;3.40;;;;;;;;;;5033919;28;20453;-70
2021/01/19 07:44:22;;;;;;;4.47;3.17;;;;;;;;;;5034471;28;20472;-69
2021/01/19 07:46:48;;;;;;;2.90;2.70;;;;;;;;;;5034483;28;20451;-70
2021/01/19 07:49:15;;;;;;;3.90;2.70;;;;;;;;;;5033703;28;20457;-70
2021/01/19 07:51:43;;;;;;;2.40;2.20;;;;;;;;;;5034780;28;20479;-70
2021/01/19 07:54:10;;;;;;;2.83;2.50;;;;;;;;;;5033883;28;20563;-70
2021/01/19 07:56:36;;;;;;;3.67;3.37;;;;;;;;;;5034555;28;20492;-71
2021/01/19 07:59:03;;;;;;;2.30;2.10;;;;;;;;;;5034083;28;20456;-70
2021/01/19 08:01:32;;;;;;;2.97;2.53;;;;;;;;;;5034607;28;20452;-70
2021/01/19 08:04:08;;;;;;;3.00;2.70;;;;;;;;;;5033977;28;20552;-70
2021/01/19 08:06:35;;;;;;;2.90;2.70;;;;;;;;;;5034175;28;20436;-70
2021/01/19 08:09:11;;;;;;;2.40;2.20;;;;;;;;;;5033630;28;20453;-70
2021/01/19 08:11:38;;;;;;;4.60;2.40;;;;;;;;;;5033840;28;20456;-71
2021/01/19 08:14:06;;;;;;;3.00;2.20;;;;;;;;;;5030471;28;20880;-71
2021/01/19 08:16:36;;;;;;;3.40;2.17;;;;;;;;;;5020355;28;20486;-69
2021/01/19 08:19:10;;;;;;;2.30;2.10;;;;;;;;;;5027258;28;20445;-69
2021/01/19 08:21:38;;;;;;;8.43;7.73;;;;;;;;;;5034371;28;20467;-72
2021/01/19 08:24:05;;;;;;;12.13;11.20;;;;;;;;;;5018235;28;20481;-70
2021/01/19 08:26:32;;;;;;;11.73;10.53;;;;;;;;;;5016910;28;20820;-71
2021/01/19 08:29:00;;;;;;;13.77;12.60;;;;;;;;;;5032309;28;20856;-71
2021/01/19 08:31:28;;;;;;;16.40;14.97;;;;;;;;;;5030457;28;20468;-71
2021/01/19 08:33:59;;;;;;;15.90;14.03;;;;;;;;;;5021389;28;20815;-71
2021/01/19 08:36:27;;;;;;;16.80;15.23;;;;;;;;;;5032776;28;20448;-71
2021/01/19 08:38:55;;;;;;;16.20;14.80;;;;;;;;;;5032902;28;20449;-71
2021/01/19 08:41:21;;;;;;;14.83;13.33;;;;;;;;;;5032087;28;20456;-71
2021/01/19 08:43:52;;;;;;;16.50;14.97;;;;;;;;;;5032959;28;20467;-69
2021/01/19 08:46:19;;;;;;;15.80;14.37;;;;;;;;;;5032669;28;20966;-68
2021/01/19 08:48:46;;;;;;;15.90;14.50;;;;;;;;;;5032812;28;20456;-68
2021/01/19 08:51:20;;;;;;;14.97;13.57;;;;;;;;;;5034360;28;20452;-70
2021/01/19 08:53:47;;;;;;;15.23;13.63;;;;;;;;;;5032980;28;20467;-71
2021/01/19 08:56:18;;;;;;;16.37;14.87;;;;;;;;;;5032912;28;20507;-71
2021/01/19 08:58:44;;;;;;;15.57;12.23;;;;;;;;;;5032896;28;20498;-70
2021/01/19 09:01:11;;;;;;;15.37;13.87;;;;;;;;;;5032654;28;20463;-71
2021/01/19 09:03:37;;;;;;;14.00;12.80;;;;;;;;;;5032695;28;20476;-71
2021/01/19 09:06:04;;;;;;;16.30;14.90;;;;;;;;;;5032690;28;20440;-72
2021/01/19 09:08:32;;;;;;;14.87;13.37;;;;;;;;;;5032053;28;20445;-71
2021/01/19 09:11:02;;;;;;;12.93;11.90;;;;;;;;;;5032448;28;20507;-71
2021/01/19 09:13:29;;;;;;;13.63;12.33;;;;;;;;;;5031289;28;20499;-70
2021/01/19 09:15:56;;;;;;;11.13;10.23;;;;;;;;;;5032576;28;20484;-70
2021/01/19 09:18:24;;;;;;;11.57;10.50;;;;;;;;;;5032078;28;20453;-70
2021/01/19 09:21:01;;;;;;;12.37;11.27;;;;;;;;;;5032187;28;20449;-71
2021/01/19 09:23:31;;;;;;;12.20;11.10;;;;;;;;;;5032540;28;20468;-70
2021/01/19 09:26:02;;;;;;;9.80;8.80;;;;;;;;;;5032471;28;20441;-66
2021/01/19 09:28:29;;;;;;;13.97;8.67;;;;;;;;;;5031642;28;20457;-65
2021/01/19 09:30:55;;;;;;;16.03;8.47;;;;;;;;;;5032989;28;20498;-73
2021/01/19 09:33:31;;;;;;;13.90;6.53;;;;;;;;;;5032900;28;20996;-76
2021/01/19 09:36:05;;;;;;;12.00;5.30;;;;;;;;;;5027322;28;20484;-73
2021/01/19 09:38:32;;;;;;;8.80;4.43;;;;;;;;;;5033012;28;20453;-71
2021/01/19 09:40:59;;;;;;;8.90;3.67;;;;;;;;;;5031872;28;21009;-63
2021/01/19 09:43:26;;;;;;;8.03;4.07;;;;;;;;;;5030978;28;20475;-62
2021/01/19 09:45:53;;;;;;;4.80;4.30;;;;;;;;;;5024346;28;20511;-61
2021/01/19 09:48:20;;;;;;;8.03;4.13;;;;;;;;;;5020470;28;20457;-62
2021/01/19 09:50:46;;;;;;;4.80;3.70;;;;;;;;;;5026737;28;20453;-61
2021/01/19 09:53:23;;;;;;;5.00;4.57;;;;;;;;;;5031862;28;20475;-65
2021/01/19 09:55:51;;;;;;;11.53;10.90;;;;;;;;;;5030992;28;20480;-64
2021/01/19 09:58:21;;;;;;;9.77;8.97;;;;;;;;;;5030937;28;20959;-63
2021/01/19 10:00:48;;;;;;;10.57;9.47;;;;;;;;;;5030763;28;20955;-64
2021/01/19 10:03:16;;;;;;;9.23;8.40;;;;;;;;;;5031996;28;20469;-64
2021/01/19 10:05:43;;;;;;;11.80;10.70;;;;;;;;;;5030979;28;20948;-63
2021/01/19 10:08:09;;;;;;;11.13;10.13;;;;;;;;;;5030862;28;20453;-63
2021/01/19 10:10:37;;;;;;;11.50;10.50;;;;;;;;;;5031089;28;20453;-64
2021/01/19 10:13:05;;;;;;;12.50;11.23;;;;;;;;;;5030529;28;21000;-64
2021/01/19 10:15:31;;;;;;;12.47;11.40;;;;;;;;;;5033633;28;20516;-63
2021/01/19 10:17:58;;;;;;;12.80;11.50;;;;;;;;;;5029991;28;20455;-65
2021/01/19 10:20:31;;;;;;;14.20;12.70;;;;;;;;;;5030624;28;20964;-64
2021/01/19 10:22:58;;;;;;;12.80;11.63;;;;;;;;;;5031684;28;20464;-65
2021/01/19 10:25:28;;;;;;;12.97;11.87;;;;;;;;;;5012399;28;20445;-64
2021/01/19 10:27:57;;;;;;;12.60;11.40;;;;;;;;;;5017563;28;20465;-64
2021/01/19 10:30:28;;;;;;;13.63;12.63;;;;;;;;;;5019906;28;20453;-64
2021/01/19 10:32:55;;;;;;;12.47;11.17;;;;;;;;;;5034201;23;20493;-64
2021/01/19 10:35:26;;;;;;;12.37;11.27;;;;;;;;;;5012168;28;20495;-67
2021/01/19 10:37:53;;;;;;;11.47;10.47;;;;;;;;;;5014594;28;20446;-64
2021/01/19 10:40:20;;;;;;;11.50;10.40;;;;;;;;;;5019513;28;20523;-65
2021/01/19 10:42:47;;;;;;;11.07;10.17;;;;;;;;;;5024645;28;20483;-65
2021/01/19 10:45:21;;;;;;;11.23;10.30;;;;;;;;;;5036728;28;20456;-69
2021/01/19 10:47:49;;;;;;;10.47;9.63;;;;;;;;;;5037209;28;20454;-69
2021/01/19 10:50:17;;;;;;;11.00;9.83;;;;;;;;;;5035869;28;20526;-68
2021/01/19 10:52:52;;;;;;;10.57;9.57;;;;;;;;;;5035528;28;21011;-67
2021/01/19 10:55:19;;;;;;;10.43;9.43;;;;;;;;;;5035050;28;20483;-68
2021/01/19 10:57:46;;;;;;;9.83;8.90;;;;;;;;;;5036045;28;20971;-67
2021/01/19 11:00:13;;;;;;;9.37;8.27;;;;;;;;;;5034671;28;20467;-70
2021/01/19 11:02:39;;;;;;;9.00;8.10;;;;;;;;;;5034177;28;21014;-68
2021/01/19 11:05:08;;;;;;;9.60;8.80;;;;;;;;;;5037268;28;20453;-69
2021/01/19 11:07:34;;;;;;;8.30;7.60;;;;;;;;;;5037365;28;20456;-67
2021/01/19 11:10:01;;;;;;;9.23;8.40;;;;;;;;;;5036142;28;20986;-68
2021/01/19 11:12:28;;;;;;;9.83;8.93;;;;;;;;;;5036482;28;20472;-70
2021/01/19 11:14:54;;;;;;;9.40;8.70;;;;;;;;;;5032105;28;20491;-69
2021/01/19 11:17:21;;;;;;;8.87;8.10;;;;;;;;;;5036024;28;20467;-71
2021/01/19 11:19:48;;;;;;;9.13;8.20;;;;;;;;;;5038996;28;20464;-70
2021/01/19 11:22:15;;;;;;;9.83;8.23;;;;;;;;;;5035941;28;20483;-68
2021/01/19 11:24:42;;;;;;;9.60;8.60;;;;;;;;;;5035368;28;20468;-69
2021/01/19 11:27:08;;;;;;;9.73;9.00;;;;;;;;;;5034951;28;20473;-69
2021/01/19 11:29:35;;;;;;;9.20;8.40;;;;;;;;;;5032746;28;20460;-70
2021/01/19 11:32:02;;;;;;;10.60;9.60;;;;;;;;;;5026188;28;20499;-67
2021/01/19 11:34:28;;;;;;;9.73;8.83;;;;;;;;;;5031205;28;20861;-68
2021/01/19 11:36:55;;;;;;;9.67;8.77;;;;;;;;;;5036050;28;20448;-69
2021/01/19 11:39:22;;;;;;;11.83;10.63;;;;;;;;;;5031664;28;20855;-67
2021/01/19 11:41:49;;;;;;;11.00;10.00;;;;;;;;;;5031587;28;20487;-69
2021/01/19 11:44:17;;;;;;;11.10;10.20;;;;;;;;;;5035466;28;20464;-69
2021/01/19 11:46:43;;;;;;;11.70;10.80;;;;;;;;;;5032262;28;20464;-69
2021/01/19 11:49:10;;;;;;;11.90;10.73;;;;;;;;;;5031728;28;21320;-68
2021/01/19 11:51:38;;;;;;;11.10;10.00;;;;;;;;;;5034438;28;20518;-63
2021/01/19 11:54:05;;;;;;;11.90;10.90;;;;;;;;;;5035568;28;20499;-69
2021/01/19 11:56:33;;;;;;;11.50;10.60;;;;;;;;;;5033242;28;20487;-67
2021/01/19 11:58:59;;;;;;;12.50;11.27;;;;;;;;;;5035410;28;20484;-68
2021/01/19 12:01:26;;;;;;;12.60;11.30;;;;;;;;;;5035730;28;20951;-68
2021/01/19 12:03:53;;;;;;;12.30;11.20;;;;;;;;;;5035262;28;20956;-68
2021/01/19 12:06:19;;;;;;;12.77;11.63;;;;;;;;;;5034347;28;20467;-67
2021/01/19 12:08:47;;;;;;;11.53;10.50;;;;;;;;;;5034224;28;20832;-68
2021/01/19 12:11:14;;;;;;;12.20;11.20;;;;;;;;;;5035438;28;20460;-68
2021/01/19 12:13:41;;;;;;;12.77;11.73;;;;;;;;;;5035625;28;20476;-68
2021/01/19 12:16:09;;;;;;;11.93;10.87;;;;;;;;;;5036580;28;20476;-69
2021/01/19 12:18:36;;;;;;;12.07;11.17;;;;;;;;;;5036019;28;20459;-69
2021/01/19 12:21:03;;;;;;;10.70;9.90;;;;;;;;;;5035343;28;20445;-65
2021/01/19 12:23:30;;;;;;;10.50;9.70;;;;;;;;;;5033836;28;20468;-65
2021/01/19 12:25:57;;;;;;;11.67;10.40;;;;;;;;;;5033820;28;20448;-65
2021/01/19 12:28:23;;;;;;;11.40;10.50;;;;;;;;;;5033978;28;20452;-65
2021/01/19 12:30:51;;;;;;;11.53;10.50;;;;;;;;;;5033554;28;20460;-64
2021/01/19 12:33:18;;;;;;;12.30;11.30;;;;;;;;;;5033806;28;20490;-65
2021/01/19 12:35:44;;;;;;;10.77;9.97;;;;;;;;;;5033650;28;20484;-66
2021/01/19 12:38:11;;;;;;;11.03;10.23;;;;;;;;;;5033289;28;20461;-65
2021/01/19 12:40:38;;;;;;;10.87;10.07;;;;;;;;;;5033392;28;20803;-66
2021/01/19 12:43:04;;;;;;;10.33;9.53;;;;;;;;;;5032795;28;21025;-65
2021/01/19 12:45:31;;;;;;;10.10;9.37;;;;;;;;;;5033694;28;20445;-65
2021/01/19 12:47:58;;;;;;;10.30;9.50;;;;;;;;;;5032884;28;20816;-65
2021/01/19 12:50:25;;;;;;;9.77;9.07;;;;;;;;;;5033494;28;20970;-65
2021/01/19 12:52:54;;;;;;;10.50;9.70;;;;;;;;;;5032706;28;20476;-65
2021/01/19 12:55:20;;;;;;;10.20;9.50;;;;;;;;;;5031898;28;20713;-67
2021/01/19 12:57:47;;;;;;;10.63;9.80;;;;;;;;;;5032794;28;20603;-65
2021/01/19 13:00:14;;;;;;;9.33;8.63;;;;;;;;;;5033189;28;20801;-66
2021/01/19 13:02:41;;;;;;;10.07;9.17;;;;;;;;;;5032994;28;21075;-65
2021/01/19 13:05:11;;;;;;;10.17;9.23;;;;;;;;;;5032793;28;20444;-66
2021/01/19 13:07:38;;;;;;;9.90;9.00;;;;;;;;;;5030389;28;20548;-66
2021/01/19 13:10:05;;;;;;;10.43;9.63;;;;;;;;;;5032951;28;20453;-66
2021/01/19 13:12:32;;;;;;;9.07;8.47;;;;;;;;;;5032712;28;20995;-66
2021/01/19 13:14:59;;;;;;;10.10;9.30;;;;;;;;;;5032103;28;20545;-66
2021/01/19 13:17:25;;;;;;;9.40;8.80;;;;;;;;;;5033294;28;20453;-65
2021/01/19 13:19:52;;;;;;;9.60;8.97;;;;;;;;;;5032330;28;21031;-65
2021/01/19 13:22:20;;;;;;;9.70;9.10;;;;;;;;;;5032774;28;20975;-65
2021/01/19 13:24:47;;;;;;;9.77;9.07;;;;;;;;;;5032861;28;20809;-65
2021/01/19 13:27:13;;;;;;;9.87;9.23;;;;;;;;;;5032190;28;20520;-65
2021/01/19 13:29:40;;;;;;;9.33;8.73;;;;;;;;;;5031710;28;21018;-65
2021/01/19 13:32:07;;;;;;;10.03;9.23;;;;;;;;;;5031616;28;20545;-65
2021/01/19 13:34:35;;;;;;;11.00;10.30;;;;;;;;;;5032652;28;20464;-65
2021/01/19 13:37:02;;;;;;;11.20;10.33;;;;;;;;;;5032484;28;20445;-65
2021/01/19 13:39:30;;;;;;;11.10;10.30;;;;;;;;;;5031731;28;20453;-65
2021/01/19 13:41:57;;;;;;;10.97;10.10;;;;;;;;;;5032180;28;20709;-65
2021/01/19 13:44:24;;;;;;;11.23;10.40;;;;;;;;;;5031548;28;20956;-65
2021/01/19 13:46:51;;;;;;;11.37;10.47;;;;;;;;;;5032076;28;20484;-65
2021/01/19 13:49:18;;;;;;;12.50;11.60;;;;;;;;;;5031463;28;20515;-67
2021/01/19 13:51:45;;;;;;;11.97;11.00;;;;;;;;;;5031015;28;20511;-65
2021/01/19 13:54:12;;;;;;;13.10;12.00;;;;;;;;;;5031344;28;20825;-65
2021/01/19 13:56:39;;;;;;;13.10;12.10;;;;;;;;;;5031290;28;20484;-65
2021/01/19 13:59:06;;;;;;;12.57;11.67;;;;;;;;;;5031370;28;20463;-65
2021/01/19 14:01:33;;;;;;;13.20;12.20;;;;;;;;;;5031713;28;20453;-65
2021/01/19 14:04:00;;;;;;;13.20;12.10;;;;;;;;;;5031236;28;20459;-65
2021/01/19 14:06:27;;;;;;;13.20;12.20;;;;;;;;;;5032054;28;20719;-65
2021/01/19 14:08:54;;;;;;;13.90;12.80;;;;;;;;;;5031257;28;20996;-65
2021/01/19 14:11:25;;;;;;;14.70;13.50;;;;;;;;;;5031905;28;20456;-65
2021/01/19 14:13:52;;;;;;;15.83;14.53;;;;;;;;;;5031765;28;20560;-65
2021/01/19 14:16:19;;;;;;;14.80;13.33;;;;;;;;;;5032255;28;20864;-65
2021/01/19 14:18:45;;;;;;;14.07;12.97;;;;;;;;;;5031127;28;20453;-65
2021/01/19 14:21:15;;;;;;;15.20;14.00;;;;;;;;;;5031633;28;20479;-65
2021/01/19 14:23:42;;;;;;;16.13;14.87;;;;;;;;;;5031793;28;20468;-65
2021/01/19 14:26:09;;;;;;;15.77;14.37;;;;;;;;;;5032163;28;20468;-66
2021/01/19 14:28:35;;;;;;;15.00;13.80;;;;;;;;;;5031138;28;20456;-65
2021/01/19 14:31:03;;;;;;;14.80;13.60;;;;;;;;;;5031476;28;20456;-67
2021/01/19 14:33:29;;;;;;;14.90;13.67;;;;;;;;;;5031422;28;20481;-66